Time;durP1;ratioP1;P1;durP2;ratioP2;P2;SDS_P1;SDS_P2;PMS_P1;PMS_P2;Temp;Humidity;BMP_temperature;BMP_pressure;BME280_temperature;BME280_humidity;BME280_pressure;Samples;Min_cycle;Max_cycle;Signal;HPM_P1;HPM_P2
2021/12/09 00:00:43;;;;;;;24.60;13.63;;;;;;;2.17;77.59;99183.34;8772948;33;20294;-71
2021/12/09 00:05:47;;;;;;;24.88;13.45;;;;;;;2.18;77.38;99171.81;8773783;33;20257;-72
2021/12/09 00:10:52;;;;;;;23.17;13.05;;;;;;;2.15;77.40;99174.66;8773694;33;20954;-71
2021/12/09 00:15:57;;;;;;;27.13;13.68;;;;;;;2.10;77.43;99168.81;8774770;33;20608;-71
2021/12/09 00:21:00;;;;;;;22.15;12.38;;;;;;;2.08;77.69;99174.19;8774394;33;20348;-72
2021/12/09 00:26:04;;;;;;;23.40;12.88;;;;;;;2.09;77.67;99167.13;8779062;33;20664;-72
2021/12/09 00:31:09;;;;;;;22.63;12.40;;;;;;;2.12;77.80;99173.06;8778205;33;20183;-71
2021/12/09 00:36:15;;;;;;;24.08;11.73;;;;;;;2.16;77.58;99161.28;8773142;33;20227;-71
2021/12/09 00:41:19;;;;;;;24.17;13.57;;;;;;;2.15;77.66;99158.75;8772518;33;20232;-71
2021/12/09 00:46:22;;;;;;;23.95;13.25;;;;;;;2.16;77.91;99160.44;8777979;33;20661;-71
2021/12/09 00:51:25;;;;;;;25.17;13.43;;;;;;;2.15;78.06;99161.41;8752740;33;20243;-71
2021/12/09 00:56:30;;;;;;;20.75;12.43;;;;;;;2.13;78.00;99160.66;8777700;33;20664;-71
2021/12/09 01:01:33;;;;;;;24.63;11.85;;;;;;;2.11;77.88;99168.72;8782067;33;20236;-71
2021/12/09 01:06:36;;;;;;;22.60;12.55;;;;;;;2.06;78.19;99162.88;8778239;33;20281;-71
2021/12/09 01:11:40;;;;;;;26.77;13.32;;;;;;;2.12;78.21;99177.50;8776678;33;20187;-71
2021/12/09 01:16:43;;;;;;;25.20;12.45;;;;;;;2.15;78.01;99185.25;8777130;33;20431;-71
2021/12/09 01:21:46;;;;;;;20.27;12.05;;;;;;;2.14;77.74;99184.41;8775225;33;22071;-71
2021/12/09 01:26:51;;;;;;;24.25;12.52;;;;;;;2.18;77.79;99182.41;8777064;33;20212;-70
2021/12/09 01:32:00;;;;;;;23.55;11.68;;;;;;;2.24;77.81;99189.94;8776671;33;20410;-71
2021/12/09 01:37:04;;;;;;;20.60;11.43;;;;;;;2.32;77.32;99195.59;8776768;33;20244;-70
2021/12/09 01:42:09;;;;;;;21.38;11.48;;;;;;;2.35;76.86;99202.47;8777020;33;20179;-70
2021/12/09 01:47:12;;;;;;;23.80;11.48;;;;;;;2.30;76.53;99210.72;8776614;33;20482;-70
2021/12/09 01:52:16;;;;;;;19.23;11.43;;;;;;;2.29;76.79;99203.75;8776766;33;20182;-70
2021/12/09 01:57:21;;;;;;;26.27;11.73;;;;;;;2.34;76.80;99204.28;8775439;33;20194;-70
2021/12/09 02:02:24;;;;;;;19.30;11.15;;;;;;;2.33;76.72;99196.44;8775478;33;20283;-73
2021/12/09 02:07:27;;;;;;;18.98;11.55;;;;;;;2.31;76.58;99201.84;8776279;33;20449;-71
2021/12/09 02:12:32;;;;;;;25.52;11.85;;;;;;;2.26;76.94;99198.66;8776304;33;20208;-71
2021/12/09 02:17:35;;;;;;;21.52;10.82;;;;;;;2.20;77.02;99193.75;8775927;33;20189;-70
2021/12/09 02:22:45;;;;;;;19.63;11.30;;;;;;;2.18;77.26;99200.94;8775616;33;20695;-71
2021/12/09 02:27:49;;;;;;;25.40;11.38;;;;;;;2.18;77.41;99201.78;8776530;33;20484;-72
2021/12/09 02:32:52;;;;;;;23.98;12.27;;;;;;;2.25;77.35;99196.97;8774790;33;20186;-72
2021/12/09 02:37:57;;;;;;;21.98;11.13;;;;;;;2.25;77.25;99194.31;8774727;33;20223;-72
2021/12/09 02:43:00;;;;;;;18.70;10.35;;;;;;;2.26;77.25;99189.84;8774620;33;20251;-72
2021/12/09 02:48:04;;;;;;;15.63;10.02;;;;;;;2.33;77.14;99191.13;8775222;33;20543;-72
2021/12/09 02:53:08;;;;;;;21.83;11.60;;;;;;;2.33;76.91;99202.59;8774512;33;20186;-71
2021/12/09 02:58:11;;;;;;;20.85;10.45;;;;;;;2.29;76.70;99202.91;8774397;33;20498;-71
2021/12/09 03:03:14;;;;;;;17.13;10.63;;;;;;;2.26;76.84;99211.06;8774768;33;20190;-72
2021/12/09 03:08:23;;;;;;;21.42;11.18;;;;;;;2.26;76.78;99208.41;8773529;33;21652;-72
2021/12/09 03:13:26;;;;;;;21.05;11.65;;;;;;;2.36;76.79;99210.34;8774244;33;20641;-71
2021/12/09 03:18:30;;;;;;;21.70;12.32;;;;;;;2.39;76.68;99206.66;8774225;33;20183;-72
2021/12/09 03:23:34;;;;;;;20.75;11.57;;;;;;;2.39;76.49;99198.69;8774856;33;22637;-73
2021/12/09 03:28:37;;;;;;;22.48;11.13;;;;;;;2.43;76.53;99202.84;8774404;33;21048;-72
2021/12/09 03:33:42;;;;;;;19.25;11.85;;;;;;;2.45;76.18;99202.75;8773817;33;20167;-72
2021/12/09 03:38:47;;;;;;;18.13;11.73;;;;;;;2.48;76.06;99200.72;8773228;33;20239;-71
2021/12/09 03:43:50;;;;;;;19.80;11.57;;;;;;;2.52;75.75;99204.84;8773483;33;20175;-71
2021/12/09 03:48:53;;;;;;;17.13;10.32;;;;;;;2.52;75.66;99202.22;8748933;33;20256;-71
2021/12/09 03:53:57;;;;;;;15.88;9.13;;;;;;;2.54;75.57;99199.50;8772993;33;20632;-72
2021/12/09 03:59:01;;;;;;;17.30;9.65;;;;;;;2.56;75.54;99203.75;8773892;33;20182;-71
2021/12/09 04:04:05;;;;;;;21.85;11.85;;;;;;;2.55;75.64;99190.59;8773266;33;20935;-71
2021/12/09 04:09:15;;;;;;;22.38;12.07;;;;;;;2.55;75.58;99194.13;8772932;33;20175;-72
2021/12/09 04:14:20;;;;;;;22.10;12.55;;;;;;;2.48;75.45;99199.88;8773458;33;20174;-71
2021/12/09 04:19:23;;;;;;;20.25;10.75;;;;;;;2.37;75.58;99196.13;8750511;33;20218;-72
2021/12/09 04:24:27;;;;;;;17.92;10.25;;;;;;;2.24;75.83;99199.69;8778046;33;20293;-71
2021/12/09 04:29:30;;;;;;;20.23;10.18;;;;;;;2.17;75.84;99197.44;8752689;33;20338;-70
2021/12/09 04:34:33;;;;;;;18.08;10.63;;;;;;;2.10;76.09;99184.69;8778347;33;20208;-71
2021/12/09 04:39:38;;;;;;;23.42;11.20;;;;;;;1.97;76.17;99186.44;8777208;33;20674;-71
2021/12/09 04:44:41;;;;;;;19.13;10.50;;;;;;;1.86;76.63;99189.78;8778196;33;20440;-71
2021/12/09 04:49:44;;;;;;;24.35;13.57;;;;;;;1.80;76.82;99201.59;8778049;33;20652;-71
2021/12/09 04:54:49;;;;;;;25.13;12.30;;;;;;;1.75;77.16;99208.13;8778019;33;20204;-71
2021/12/09 04:59:52;;;;;;;20.85;11.38;;;;;;;1.77;77.37;99219.50;8776832;33;20632;-71
2021/12/09 05:05:00;;;;;;;23.63;11.25;;;;;;;1.76;77.33;99223.94;8777328;33;20732;-71
2021/12/09 05:10:06;;;;;;;21.00;10.77;;;;;;;1.76;77.14;99226.59;8776413;33;20898;-72
2021/12/09 05:15:10;;;;;;;17.65;10.23;;;;;;;1.76;77.15;99239.81;8776356;33;20645;-71
2021/12/09 05:20:13;;;;;;;20.20;10.65;;;;;;;1.63;76.82;99252.13;8751718;33;20178;-71
2021/12/09 05:25:18;;;;;;;19.15;10.52;;;;;;;1.39;77.23;99250.03;8751375;33;20151;-72
2021/12/09 05:30:24;;;;;;;18.48;11.23;;;;;;;1.27;77.59;99250.78;8775028;33;20187;-72
2021/12/09 05:35:27;;;;;;;18.05;11.45;;;;;;;1.24;77.97;99251.81;8777050;33;20140;-72
2021/12/09 05:40:32;;;;;;;18.10;11.18;;;;;;;1.30;78.28;99255.06;8776766;33;20123;-72
2021/12/09 05:45:35;;;;;;;21.58;11.07;;;;;;;1.30;77.94;99255.06;8777574;33;20209;-73
2021/12/09 05:50:38;;;;;;;15.20;9.55;;;;;;;1.28;78.39;99260.41;8795749;33;20927;-71
2021/12/09 05:55:43;;;;;;;15.68;9.60;;;;;;;1.32;78.03;99261.94;8795262;33;20183;-72
2021/12/09 06:00:48;;;;;;;21.85;10.57;;;;;;;1.37;78.22;99259.00;8779056;33;20151;-72
2021/12/09 06:05:52;;;;;;;20.45;11.45;;;;;;;1.28;77.79;99258.63;8779183;33;20205;-71
2021/12/09 06:10:58;;;;;;;21.45;10.65;;;;;;;1.22;77.83;99271.38;8779675;33;20157;-72
2021/12/09 06:16:01;;;;;;;17.67;9.68;;;;;;;1.15;77.83;99270.91;8777555;33;20556;-71
2021/12/09 06:21:05;;;;;;;18.42;11.07;;;;;;;1.10;77.85;99270.31;8776988;33;21271;-71
2021/12/09 06:26:09;;;;;;;20.00;11.25;;;;;;;1.09;78.10;99280.97;8776365;33;20236;-71
2021/12/09 06:31:13;;;;;;;17.20;10.38;;;;;;;1.02;77.98;99276.06;8776226;33;20170;-71
2021/12/09 06:36:16;;;;;;;23.50;11.68;;;;;;;1.01;78.27;99284.91;8776228;33;20313;-71
2021/12/09 06:41:21;;;;;;;26.27;12.43;;;;;;;1.04;78.37;99279.47;8775893;33;20428;-71
2021/12/09 06:46:25;;;;;;;21.10;12.02;;;;;;;1.10;78.39;99266.81;8775847;33;20251;-71
2021/12/09 06:51:28;;;;;;;23.42;10.50;;;;;;;1.04;78.48;99268.03;8775712;33;20321;-71
2021/12/09 06:56:32;;;;;;;20.45;11.45;;;;;;;1.01;78.10;99278.78;8775154;33;20729;-72
2021/12/09 07:01:36;;;;;;;19.00;10.43;;;;;;;1.10;78.34;99277.38;8775426;33;20148;-71
2021/12/09 07:06:40;;;;;;;23.52;10.25;;;;;;;1.16;78.16;99283.19;8775805;33;20325;-72
2021/12/09 07:11:50;;;;;;;21.45;11.05;;;;;;;1.11;77.74;99284.41;8775421;33;20669;-72
2021/12/09 07:16:53;;;;;;;23.98;11.45;;;;;;;1.03;78.15;99290.97;8774921;33;20182;-71
2021/12/09 07:21:56;;;;;;;22.55;11.55;;;;;;;1.01;78.00;99294.66;8774995;33;21524;-71
2021/12/09 07:27:00;;;;;;;21.75;11.35;;;;;;;1.00;78.37;99303.53;8775101;33;20768;-71
2021/12/09 07:32:05;;;;;;;18.75;9.90;;;;;;;1.20;78.14;99305.00;8775337;33;20852;-71
2021/12/09 07:37:08;;;;;;;19.15;10.43;;;;;;;1.40;77.92;99307.31;8774883;33;20244;-72
2021/12/09 07:42:14;;;;;;;22.63;11.65;;;;;;;1.61;76.81;99307.78;8788250;33;20570;-72
2021/12/09 07:47:18;;;;;;;21.42;10.05;;;;;;;1.77;76.38;99309.50;8800013;33;20132;-71
2021/12/09 07:52:21;;;;;;;18.58;9.55;;;;;;;1.87;75.91;99318.59;8768672;33;20190;-72
2021/12/09 07:57:25;;;;;;;18.05;9.77;;;;;;;1.94;75.35;99322.56;8774464;33;20734;-72
2021/12/09 08:02:28;;;;;;;19.92;10.27;;;;;;;2.01;75.15;99323.03;8777929;33;20267;-72
2021/12/09 08:07:32;;;;;;;23.73;11.13;;;;;;;2.01;75.00;99315.94;8775425;33;20227;-71
2021/12/09 08:12:36;;;;;;;16.02;8.60;;;;;;;2.11;74.97;99311.78;8779214;33;20195;-72
2021/12/09 08:18:02;;;;;;;20.33;11.77;;;;;;;2.29;74.81;99317.69;8779530;33;20154;-72
2021/12/09 08:23:06;;;;;;;15.85;9.63;;;;;;;2.33;74.31;99313.91;8779792;33;21643;-72
2021/12/09 08:28:11;;;;;;;18.25;9.02;;;;;;;2.39;73.93;99315.31;8778905;33;20441;-73
2021/12/09 08:33:14;;;;;;;13.57;8.13;;;;;;;2.61;73.80;99312.16;8778657;33;20283;-71
2021/12/09 08:38:18;;;;;;;21.67;8.75;;;;;;;3.16;72.31;99297.03;8780002;33;20171;-72
2021/12/09 08:43:24;;;;;;;12.90;7.55;;;;;;;3.53;71.50;99305.13;8779642;33;20442;-71
2021/12/09 08:48:27;;;;;;;15.55;9.52;;;;;;;4.13;70.24;99312.41;8778927;33;20596;-71
2021/12/09 08:53:30;;;;;;;19.77;12.02;;;;;;;4.38;67.85;99330.13;8778590;33;20186;-72
2021/12/09 08:58:35;;;;;;;20.42;11.95;;;;;;;4.45;67.38;99333.19;8778533;33;20239;-71
2021/12/09 09:03:38;;;;;;;21.15;9.50;;;;;;;4.58;66.42;99341.97;8778732;33;20515;-71
2021/12/09 09:08:42;;;;;;;23.98;10.85;;;;;;;4.30;66.54;99361.72;8778847;33;20147;-71
2021/12/09 09:13:47;;;;;;;18.95;9.68;;;;;;;3.97;67.70;99371.09;8778211;33;21599;-71
2021/12/09 09:18:53;;;;;;;18.33;11.30;;;;;;;3.53;68.78;99369.72;8777934;33;20190;-71
2021/12/09 09:23:56;;;;;;;23.35;10.30;;;;;;;3.34;70.04;99374.56;8777521;33;20679;-71
2021/12/09 09:29:01;;;;;;;15.88;8.50;;;;;;;3.32;70.25;99374.69;8777544;33;20250;-72
2021/12/09 09:34:04;;;;;;;13.32;8.30;;;;;;;3.27;70.73;99376.78;8777252;33;20745;-72
2021/12/09 09:39:17;;;;;;;18.92;8.75;;;;;;;3.09;70.86;99384.16;8777342;33;20495;-72
2021/12/09 09:44:27;;;;;;;16.70;6.97;;;;;;;3.06;71.46;99373.75;8752883;33;20231;-71
2021/12/09 09:49:34;;;;;;;14.68;7.00;;;;;;;3.03;71.55;99390.72;8777318;33;20861;-72
2021/12/09 09:54:37;;;;;;;12.90;7.85;;;;;;;3.26;71.38;99388.34;8777512;33;20190;-71
2021/12/09 09:59:42;;;;;;;14.70;7.30;;;;;;;3.45;71.04;99378.19;8776767;33;20231;-72
2021/12/09 10:04:48;;;;;;;13.93;7.38;;;;;;;4.26;68.91;99358.44;8778303;33;20522;-71
2021/12/09 10:09:53;;;;;;;11.95;6.65;;;;;;;4.74;66.63;99358.50;8777030;33;20244;-71
2021/12/09 10:14:58;;;;;;;15.02;7.07;;;;;;;5.10;64.63;99347.94;8777279;33;20151;-71
2021/12/09 10:20:05;;;;;;;10.95;6.57;;;;;;;5.14;64.55;99341.44;8775807;33;20183;-71
2021/12/09 10:25:20;;;;;;;13.23;6.68;;;;;;;4.60;66.49;99332.06;8776203;33;20174;-71
2021/12/09 10:30:24;;;;;;;15.85;7.28;;;;;;;4.97;65.40;99324.91;8776424;33;20171;-72
2021/12/09 10:35:27;;;;;;;12.55;6.15;;;;;;;5.21;63.77;99324.03;8776498;33;20307;-71
2021/12/09 10:40:30;;;;;;;12.70;6.70;;;;;;;5.44;63.20;99315.16;8775951;33;20487;-71
2021/12/09 10:45:39;;;;;;;11.90;6.43;;;;;;;5.54;62.00;99302.00;8776699;33;20704;-71
2021/12/09 10:51:05;;;;;;;13.95;6.10;;;;;;;5.46;62.23;99299.91;8775729;33;20685;-71
2021/12/09 10:56:11;;;;;;;11.93;5.93;;;;;;;5.47;63.52;99308.75;8776249;33;20561;-71
2021/12/09 11:01:18;;;;;;;15.52;6.00;;;;;;;5.61;62.66;99294.34;8775749;33;20152;-71
2021/12/09 11:06:24;;;;;;;11.90;5.75;;;;;;;5.57;62.64;99300.88;8766300;33;20446;-72
2021/12/09 11:11:31;;;;;;;10.15;6.45;;;;;;;5.71;62.33;99306.00;8806288;33;20235;-72
2021/12/09 11:16:39;;;;;;;14.48;6.40;;;;;;;5.81;61.85;99301.63;8780694;33;20755;-70
2021/12/09 11:21:46;;;;;;;11.38;7.07;;;;;;;5.88;61.56;99305.53;8750744;33;20495;-70
2021/12/09 11:26:55;;;;;;;10.45;5.78;;;;;;;5.76;61.76;99298.50;8778007;33;20293;-70
2021/12/09 11:32:05;;;;;;;15.32;5.40;;;;;;;5.52;62.38;99300.41;8775029;33;21882;-71
2021/12/09 11:37:33;;;;;;;12.05;5.93;;;;;;;4.68;65.23;99275.66;8774227;33;21664;-73
2021/12/09 11:42:41;;;;;;;9.38;5.55;;;;;;;5.28;63.11;99280.84;8775213;33;20173;-70
2021/12/09 11:47:48;;;;;;;9.65;5.43;;;;;;;4.70;64.75;99287.03;8775746;33;21554;-72
2021/12/09 11:52:53;;;;;;;10.15;5.72;;;;;;;4.52;65.73;99283.91;8749093;33;20765;-72
2021/12/09 11:58:00;;;;;;;15.00;5.93;;;;;;;4.20;67.48;99280.91;8770785;33;20186;-72
2021/12/09 12:14:41;;;;;;;12.95;6.95;;;;;;;4.52;67.64;99282.09;8776913;33;20239;-73
2021/12/09 12:37:11;;;;;;;13.88;6.57;;;;;;;3.71;69.91;99279.97;8771952;33;20144;-72
2021/12/09 12:42:29;;;;;;;14.75;7.85;;;;;;;3.63;70.71;99269.03;8773852;33;20645;-73
2021/12/09 12:47:40;;;;;;;13.13;7.72;;;;;;;3.81;70.32;99267.72;8774418;33;20197;-73
2021/12/09 12:52:45;;;;;;;15.63;8.90;;;;;;;3.63;70.52;99253.94;8778312;33;20211;-72
2021/12/09 12:57:52;;;;;;;11.73;7.53;;;;;;;3.68;70.24;99275.72;8778495;33;20888;-72
2021/12/09 13:03:11;;;;;;;14.25;8.50;;;;;;;3.43;70.32;99275.72;8778397;33;20201;-73
2021/12/09 13:08:45;;;;;;;15.10;8.32;;;;;;;3.38;71.42;99262.75;8753325;33;20216;-72
2021/12/09 13:14:01;;;;;;;11.95;7.65;;;;;;;3.32;71.57;99284.44;8777746;33;20191;-72
2021/12/09 13:19:13;;;;;;;15.25;7.32;;;;;;;3.33;71.27;99282.63;8777742;33;20183;-72
2021/12/09 13:24:40;;;;;;;18.45;9.48;;;;;;;3.43;71.90;99283.69;8777482;33;20668;-72
2021/12/09 13:29:54;;;;;;;16.25;8.68;;;;;;;3.31;72.94;99285.38;8778041;33;20143;-72
2021/12/09 13:35:12;;;;;;;16.27;9.30;;;;;;;3.41;71.89;99297.06;8778356;33;20576;-71
2021/12/09 13:40:24;;;;;;;24.85;11.48;;;;;;;3.46;71.56;99300.25;8776827;33;20305;-71
2021/12/09 13:50:56;;;;;;;11.05;6.53;;;;;;;3.01;72.19;99296.25;8775909;33;20224;-71
2021/12/09 13:56:00;;;;;;;16.83;8.80;;;;;;;3.07;72.24;99295.84;8777810;33;20190;-72
2021/12/09 14:01:05;;;;;;;16.30;9.68;;;;;;;3.35;71.84;99288.69;8777129;33;20257;-71
2021/12/09 14:06:12;;;;;;;14.45;7.82;;;;;;;3.33;71.80;99294.06;8753043;33;20946;-72
2021/12/09 14:11:23;;;;;;;15.70;8.27;;;;;;;3.27;72.12;99295.34;8752094;33;20433;-71
2021/12/09 14:16:40;;;;;;;13.65;7.95;;;;;;;3.32;71.86;99302.13;8777319;33;20248;-71
2021/12/09 14:21:50;;;;;;;12.85;7.68;;;;;;;3.25;71.78;99299.06;8776898;33;20167;-71
2021/12/09 14:27:04;;;;;;;14.07;6.85;;;;;;;3.29;71.66;99300.53;8775326;33;20147;-72
2021/12/09 14:32:09;;;;;;;13.20;6.70;;;;;;;3.56;70.63;99297.78;8772525;33;20187;-72
2021/12/09 14:37:15;;;;;;;10.10;7.10;;;;;;;3.56;70.37;99305.75;8775020;33;20137;-71
2021/12/09 14:42:21;;;;;;;13.30;6.50;;;;;;;3.47;70.45;99309.91;8775000;33;20224;-72
2021/12/09 14:47:27;;;;;;;10.35;6.55;;;;;;;3.63;69.72;99312.38;8771017;33;20166;-71
2021/12/09 14:52:33;;;;;;;12.25;6.57;;;;;;;3.77;69.42;99311.41;8774295;33;20190;-72
2021/12/09 14:57:55;;;;;;;10.60;6.70;;;;;;;3.73;69.13;99313.44;8774461;33;20260;-72
2021/12/09 15:03:00;;;;;;;10.73;6.72;;;;;;;3.74;69.23;99322.25;8774211;33;20777;-72
2021/12/09 15:08:06;;;;;;;9.18;6.60;;;;;;;3.77;68.98;99313.22;8774047;33;20183;-72
2021/12/09 15:13:13;;;;;;;14.00;6.50;;;;;;;3.64;69.12;99310.56;8775146;33;20187;-72
2021/12/09 15:18:27;;;;;;;12.55;6.90;;;;;;;3.63;69.13;99311.53;8774885;33;20329;-72
2021/12/09 15:23:41;;;;;;;10.40;6.45;;;;;;;3.55;68.63;99306.72;8774542;33;20616;-72
2021/12/09 15:28:45;;;;;;;12.25;6.22;;;;;;;3.59;68.57;99302.03;8775014;33;20187;-72
2021/12/09 15:33:52;;;;;;;9.00;5.82;;;;;;;3.55;68.18;99309.38;8774784;33;20179;-73
2021/12/09 15:39:03;;;;;;;8.13;5.90;;;;;;;3.52;67.76;99304.28;8774559;33;20277;-72
2021/12/09 15:44:14;;;;;;;8.00;5.32;;;;;;;3.54;67.35;99310.34;8774570;33;20537;-72
2021/12/09 15:49:19;;;;;;;8.60;5.63;;;;;;;3.48;67.56;99316.06;8773769;33;20204;-71
2021/12/09 15:54:28;;;;;;;7.82;5.22;;;;;;;3.50;67.45;99311.50;8773743;33;20183;-71
2021/12/09 15:59:37;;;;;;;8.68;5.40;;;;;;;3.47;67.72;99303.75;8773828;33;20464;-72
2021/12/09 16:04:40;;;;;;;7.05;5.28;;;;;;;3.43;67.98;99300.47;8774503;33;20221;-72
2021/12/09 16:09:44;;;;;;;8.25;5.25;;;;;;;3.44;67.84;99304.81;8774593;33;20148;-72
2021/12/09 16:14:53;;;;;;;9.40;5.57;;;;;;;3.45;68.16;99314.47;8775772;33;20217;-71
2021/12/09 16:19:58;;;;;;;10.65;5.20;;;;;;;3.40;68.60;99315.72;8796262;33;20165;-72
2021/12/09 16:25:08;;;;;;;7.35;5.50;;;;;;;3.48;69.04;99321.38;8779965;33;20186;-71
2021/12/09 16:30:16;;;;;;;8.68;5.65;;;;;;;3.30;68.84;99314.69;8756952;33;20275;-73
2021/12/09 16:35:24;;;;;;;6.97;5.07;;;;;;;3.08;68.71;99312.63;8755099;33;20132;-71
2021/12/09 16:40:33;;;;;;;9.45;4.40;;;;;;;3.17;68.28;99317.31;8780433;33;20915;-71
2021/12/09 16:45:38;;;;;;;9.57;4.72;;;;;;;3.14;68.32;99322.81;8778855;33;20183;-71
2021/12/09 16:50:44;;;;;;;11.27;4.57;;;;;;;3.02;68.51;99330.66;8778457;33;20316;-71
2021/12/09 16:55:55;;;;;;;6.30;4.80;;;;;;;2.98;68.45;99309.72;8753845;33;20632;-71
2021/12/09 17:01:00;;;;;;;10.43;4.43;;;;;;;3.17;68.31;99312.84;8778105;33;20563;-70
2021/12/09 17:06:04;;;;;;;7.68;3.88;;;;;;;3.05;68.14;99326.94;8779056;33;20191;-71
2021/12/09 17:11:07;;;;;;;8.50;4.32;;;;;;;2.93;69.02;99325.94;8778206;33;20198;-71
2021/12/09 17:16:11;;;;;;;18.20;4.82;;;;;;;2.93;68.95;99312.66;8778325;33;20706;-72
2021/12/09 17:21:15;;;;;;;6.70;4.72;;;;;;;2.81;69.04;99311.69;8777486;33;20270;-72
2021/12/09 17:26:18;;;;;;;9.95;4.43;;;;;;;2.76;68.99;99313.78;8777112;33;20179;-71
2021/12/09 17:31:36;;;;;;;10.90;5.05;;;;;;;2.81;68.85;99314.34;8777638;33;20966;-71
2021/12/09 17:36:41;;;;;;;8.48;4.10;;;;;;;2.86;68.84;99310.56;8777251;33;21574;-72
2021/12/09 17:41:50;;;;;;;6.80;4.32;;;;;;;2.91;68.48;99317.25;8777026;33;20322;-72
2021/12/09 17:47:00;;;;;;;7.03;4.13;;;;;;;3.01;68.16;99307.72;8777103;33;20307;-72
2021/12/09 17:52:12;;;;;;;6.53;3.47;;;;;;;3.01;68.13;99302.41;8776781;33;20183;-72
2021/12/09 17:57:15;;;;;;;9.60;4.30;;;;;;;3.01;68.24;99305.06;8775679;33;20187;-72
2021/12/09 18:02:20;;;;;;;7.72;4.43;;;;;;;3.00;67.82;99298.06;8776448;33;20193;-72
2021/12/09 18:07:23;;;;;;;8.65;4.70;;;;;;;3.07;67.79;99301.13;8777366;33;20150;-72
2021/12/09 18:12:30;;;;;;;6.57;3.78;;;;;;;3.10;67.25;99308.91;8775426;33;20624;-72
2021/12/09 18:17:37;;;;;;;7.10;3.60;;;;;;;2.93;67.57;99301.22;8775749;33;20190;-72
2021/12/09 18:22:41;;;;;;;9.70;4.03;;;;;;;3.02;66.96;99290.00;8776210;33;20315;-72
2021/12/09 18:27:45;;;;;;;7.60;4.32;;;;;;;3.05;67.04;99284.50;8777800;33;20952;-70
2021/12/09 18:32:49;;;;;;;6.45;4.72;;;;;;;3.01;67.16;99290.94;8751325;33;20175;-72
2021/12/09 18:37:55;;;;;;;8.30;4.38;;;;;;;2.96;67.38;99287.75;8775992;33;20726;-71
2021/12/09 18:43:00;;;;;;;7.28;3.95;;;;;;;2.99;67.39;99296.38;8776326;33;20591;-71
2021/12/09 18:48:07;;;;;;;7.90;4.50;;;;;;;3.02;67.10;99285.56;8775635;33;20744;-71
2021/12/09 18:53:12;;;;;;;7.25;4.75;;;;;;;2.96;67.42;99282.44;8775516;33;20717;-71
2021/12/09 18:58:17;;;;;;;7.22;3.90;;;;;;;2.96;67.58;99271.84;8750850;33;20335;-71
2021/12/09 19:03:23;;;;;;;9.23;4.10;;;;;;;2.94;67.23;99265.81;8774741;33;20969;-71
2021/12/09 19:08:26;;;;;;;8.35;5.20;;;;;;;3.00;67.27;99268.03;8747126;33;20226;-72
2021/12/09 19:13:31;;;;;;;4.43;3.58;;;;;;;3.00;67.01;99260.06;8774217;33;20179;-71
2021/12/09 19:18:36;;;;;;;8.00;3.83;;;;;;;2.96;67.00;99261.22;8769046;33;20639;-71
2021/12/09 19:23:42;;;;;;;10.07;4.45;;;;;;;2.89;67.32;99257.28;8773663;33;20574;-71
2021/12/09 19:28:47;;;;;;;7.30;4.30;;;;;;;2.97;66.96;99261.13;8773377;33;20266;-71
2021/12/09 19:33:52;;;;;;;9.18;4.43;;;;;;;2.92;67.05;99259.75;8773542;33;20251;-71
2021/12/09 19:38:57;;;;;;;8.63;3.72;;;;;;;2.80;67.23;99249.00;8770544;33;20562;-72
2021/12/09 19:44:00;;;;;;;11.07;4.60;;;;;;;2.92;67.35;99239.34;8748542;33;20268;-71
2021/12/09 19:49:05;;;;;;;7.28;4.22;;;;;;;3.01;67.13;99229.94;8792504;33;20631;-71
2021/12/09 19:54:09;;;;;;;5.88;4.03;;;;;;;3.04;66.85;99224.41;8801791;32;20270;-71
2021/12/09 19:59:12;;;;;;;6.40;4.22;;;;;;;3.00;67.03;99217.63;8800155;32;20756;-71
2021/12/09 20:04:17;;;;;;;7.25;4.60;;;;;;;2.94;67.07;99216.25;8802769;33;20496;-70
2021/12/09 20:09:29;;;;;;;8.63;4.30;;;;;;;2.90;67.59;99214.75;8782091;33;20194;-71
2021/12/09 20:14:32;;;;;;;8.77;4.25;;;;;;;2.95;67.63;99198.53;8769740;33;20186;-71
2021/12/09 20:19:37;;;;;;;9.10;5.07;;;;;;;2.89;67.66;99199.78;8772231;33;20255;-71
2021/12/09 20:24:54;;;;;;;7.82;5.35;;;;;;;2.90;67.75;99201.47;8770751;33;20215;-71
2021/12/09 20:29:57;;;;;;;7.78;4.88;;;;;;;2.94;67.57;99204.78;8747308;33;20236;-70
2021/12/09 20:35:02;;;;;;;8.65;4.90;;;;;;;2.87;67.77;99207.00;8772866;33;20155;-71
2021/12/09 20:40:08;;;;;;;7.30;5.35;;;;;;;2.86;68.09;99193.84;8768592;33;20483;-71
2021/12/09 20:45:11;;;;;;;7.47;4.95;;;;;;;2.86;67.56;99193.84;8768978;33;20147;-71
2021/12/09 20:50:19;;;;;;;6.38;4.60;;;;;;;2.89;67.61;99193.63;8772269;33;20225;-71
2021/12/09 20:55:22;;;;;;;8.95;5.00;;;;;;;2.89;67.69;99180.38;8772400;33;20277;-71
2021/12/09 21:00:27;;;;;;;9.05;4.90;;;;;;;2.78;68.28;99179.28;8775100;33;20505;-71
2021/12/09 21:05:32;;;;;;;7.10;4.95;;;;;;;2.77;68.45;99182.03;8774474;33;20679;-71
2021/12/09 21:10:39;;;;;;;10.35;7.30;;;;;;;2.79;68.57;99186.28;8777003;33;21809;-72
2021/12/09 21:15:42;;;;;;;7.40;4.68;;;;;;;2.92;68.28;99178.34;8776977;33;21547;-72
2021/12/09 21:20:52;;;;;;;10.73;5.75;;;;;;;2.88;68.42;99166.28;8751382;33;20147;-73
2021/12/09 21:26:00;;;;;;;11.77;5.47;;;;;;;2.90;68.65;99155.53;8774365;33;20409;-72
2021/12/09 21:31:04;;;;;;;7.95;5.38;;;;;;;2.90;68.52;99153.72;8776535;33;20268;-71
2021/12/09 21:36:10;;;;;;;8.15;5.22;;;;;;;2.86;68.70;99138.16;8777985;33;21334;-71
2021/12/09 21:41:13;;;;;;;10.52;5.35;;;;;;;2.74;68.97;99132.75;8777501;33;20252;-72
2021/12/09 21:46:16;;;;;;;8.30;4.97;;;;;;;2.76;69.04;99114.06;8778187;33;20664;-71
2021/12/09 21:51:20;;;;;;;11.25;5.75;;;;;;;2.72;69.31;99104.63;8783055;33;20201;-71
2021/12/09 21:56:23;;;;;;;9.55;5.80;;;;;;;2.67;69.63;99106.75;8784761;33;20156;-71
2021/12/09 22:01:26;;;;;;;11.80;6.82;;;;;;;2.75;69.50;99101.75;8777105;33;20177;-72
2021/12/09 22:06:32;;;;;;;8.90;5.68;;;;;;;2.82;69.55;99087.94;8778292;33;20603;-72
2021/12/09 22:11:35;;;;;;;8.85;5.82;;;;;;;2.83;69.80;99094.97;8774549;33;20150;-72
2021/12/09 22:16:44;;;;;;;13.27;6.07;;;;;;;2.89;69.80;99083.09;8776011;33;20818;-72
2021/12/09 22:21:51;;;;;;;11.32;6.65;;;;;;;2.76;70.13;99069.81;8776277;33;20155;-72
2021/12/09 22:26:56;;;;;;;9.27;6.15;;;;;;;2.77;70.24;99068.88;8778858;33;20139;-71
2021/12/09 22:31:59;;;;;;;10.32;5.82;;;;;;;2.77;70.18;99070.66;8799050;32;20186;-71
2021/12/09 22:37:04;;;;;;;12.95;7.00;;;;;;;2.72;70.41;99056.91;8806234;33;20187;-71
2021/12/09 22:42:08;;;;;;;7.57;5.60;;;;;;;2.78;70.13;99062.59;8803717;32;20528;-72
2021/12/09 22:47:13;;;;;;;8.70;5.57;;;;;;;2.78;70.38;99040.56;8779026;33;20613;-71
2021/12/09 22:52:19;;;;;;;9.05;5.93;;;;;;;2.80;70.36;99036.00;8771527;33;20463;-72
2021/12/09 22:57:22;;;;;;;11.80;6.63;;;;;;;2.75;70.53;99023.06;8774649;33;20179;-72
2021/12/09 23:02:25;;;;;;;11.60;5.90;;;;;;;2.72;70.64;99015.31;8774705;33;20671;-72
2021/12/09 23:07:29;;;;;;;9.32;5.80;;;;;;;2.81;70.48;99006.69;8774468;33;20945;-71
2021/12/09 23:12:39;;;;;;;8.60;5.32;;;;;;;2.84;70.51;99001.16;8774001;33;20171;-72
2021/12/09 23:17:44;;;;;;;9.40;5.55;;;;;;;2.79;70.43;98990.03;8749112;33;20740;-71
2021/12/09 23:22:49;;;;;;;9.00;5.28;;;;;;;2.76;70.72;98984.97;8773695;33;20206;-72
2021/12/09 23:27:52;;;;;;;8.20;5.63;;;;;;;2.72;70.80;98964.09;8774121;33;20228;-72
2021/12/09 23:32:55;;;;;;;7.78;5.97;;;;;;;2.76;70.84;98962.91;8773523;33;20187;-71
2021/12/09 23:38:00;;;;;;;9.27;5.80;;;;;;;2.97;70.44;98955.22;8773442;33;20271;-71
2021/12/09 23:43:03;;;;;;;9.18;5.50;;;;;;;3.00;70.00;98953.19;8773215;33;20232;-72
2021/12/09 23:48:08;;;;;;;9.48;4.95;;;;;;;3.01;69.89;98944.25;8773482;33;20139;-72
2021/12/09 23:53:13;;;;;;;9.38;5.75;;;;;;;2.97;70.17;98932.19;8773432;33;20182;-71
2021/12/09 23:58:19;;;;;;;8.18;5.40;;;;;;;2.97;69.92;98926.88;8773107;33;20462;-71
